Ater, Texas
Current Conditions -  °F | °C
As of 12:55 PM on Friday 31 Oct 2014 (Local Time) from KGOP Reporting Station
Clear Clear  
Wind Chill: 19°   Ceiling: Unl
Heat Index: 19°   Visibility: 10mi
Dew Point:   Wind: 9mph
Humidity: 35%   Direction: 360°N
Pressure: 30.35"   Gusts: 22mph
Location:  31.392°N, 97.7452°W
Report Text: KGOP 311755Z AUTO 36008G19KT 040V010 10SM CLR 19/03 A3035 RMK AO2
Loading
Personal Weather Stations






























Interactive Weather Map
Tropical Storm Tracking
New forecast layout! Learn more

10-Day Weather Forecast

Advertisements
Track Severe Weather on mobile